createdAt,value
2017-10-21T00:00:45.264Z,88.60
2017-10-21T00:03:12.737Z,88.43
2017-10-21T00:05:40.165Z,88.68
2017-10-21T00:08:07.628Z,89.09
2017-10-21T00:10:35.108Z,88.68
2017-10-21T00:13:02.563Z,89.00
2017-10-21T00:15:30.036Z,89.73
2017-10-21T00:17:57.566Z,90.01
2017-10-21T00:20:25.012Z,90.14
2017-10-21T00:22:52.465Z,90.40
2017-10-21T00:25:19.950Z,89.67
2017-10-21T00:27:47.386Z,88.85
2017-10-21T00:30:14.855Z,89.42
2017-10-21T00:32:42.421Z,89.20
2017-10-21T00:35:09.985Z,88.99
2017-10-21T00:37:37.432Z,89.39
2017-10-21T00:40:04.896Z,89.73
2017-10-21T00:42:32.351Z,90.67
2017-10-21T00:44:59.842Z,91.23
2017-10-21T00:47:27.378Z,90.74
2017-10-21T00:49:54.860Z,90.13
2017-10-21T00:52:22.313Z,90.14
2017-10-21T00:54:49.797Z,89.29
2017-10-21T00:57:17.257Z,89.57
2017-10-21T00:59:44.732Z,90.02
2017-10-21T01:02:12.218Z,89.15
2017-10-21T01:04:39.716Z,89.68
2017-10-21T01:07:07.223Z,89.74
2017-10-21T01:09:34.702Z,89.97
2017-10-21T01:12:02.144Z,90.08
2017-10-21T01:14:29.631Z,90.16
2017-10-21T01:16:57.086Z,89.52
2017-10-21T01:19:24.608Z,89.38
2017-10-21T01:21:52.078Z,89.76
2017-10-21T01:24:19.553Z,89.77
2017-10-21T01:26:47.008Z,89.15
2017-10-21T01:29:14.542Z,89.58
2017-10-21T01:31:42.050Z,89.87
2017-10-21T01:34:09.528Z,89.41
2017-10-21T01:36:36.980Z,89.13
2017-10-21T01:39:04.465Z,89.44
2017-10-21T01:41:31.920Z,89.74
2017-10-21T01:43:59.488Z,89.79
2017-10-21T01:46:27.041Z,89.44
2017-10-21T01:48:54.512Z,89.34
2017-10-21T01:51:22.036Z,89.46
2017-10-21T01:53:49.483Z,89.56
2017-10-21T01:56:16.966Z,89.45
2017-10-21T01:58:44.425Z,89.75
2017-10-21T02:01:11.996Z,89.59
2017-10-21T02:03:39.450Z,89.09
2017-10-21T02:06:06.929Z,89.04
2017-10-21T02:08:34.384Z,89.38
2017-10-21T02:11:01.866Z,89.22
2017-10-21T02:13:29.369Z,88.53
2017-10-21T02:15:56.926Z,89.38
2017-10-21T02:18:24.374Z,88.81
2017-10-21T02:20:51.873Z,88.59
2017-10-21T02:23:19.315Z,88.32
2017-10-21T02:25:46.861Z,88.27
2017-10-21T02:28:14.437Z,87.76
2017-10-21T02:30:41.921Z,88.46
2017-10-21T02:33:09.428Z,88.37
2017-10-21T02:35:36.900Z,88.50
2017-10-21T02:38:04.352Z,88.80
2017-10-21T02:40:31.842Z,87.42
2017-10-21T02:42:59.350Z,88.48
2017-10-21T02:45:26.917Z,88.90
2017-10-21T02:47:54.489Z,89.33
2017-10-21T02:50:21.973Z,89.11
2017-10-21T02:52:49.493Z,89.61
2017-10-21T02:55:16.968Z,90.16
2017-10-21T02:57:44.440Z,90.53
2017-10-21T03:00:11.918Z,90.79
2017-10-21T03:02:39.376Z,89.93
2017-10-21T03:05:06.852Z,90.31
2017-10-21T03:07:34.307Z,90.35
2017-10-21T03:10:01.779Z,89.97
2017-10-21T03:12:29.248Z,89.14
2017-10-21T03:14:56.725Z,89.81
2017-10-21T03:17:24.181Z,89.88
2017-10-21T03:19:51.672Z,89.62
2017-10-21T03:22:19.127Z,90.35
2017-10-21T03:24:46.637Z,90.50
2017-10-21T03:27:14.188Z,90.56
2017-10-21T03:29:41.644Z,89.21
2017-10-21T03:32:09.215Z,89.79
2017-10-21T03:34:36.673Z,90.53
2017-10-21T03:37:04.153Z,90.19
2017-10-21T03:39:31.601Z,90.78
2017-10-21T03:41:59.072Z,90.76
2017-10-21T03:44:26.583Z,90.51
2017-10-21T03:46:54.078Z,90.60
2017-10-21T03:49:21.528Z,90.58
2017-10-21T03:51:49.013Z,90.75
2017-10-21T03:54:16.492Z,90.54
2017-10-21T03:56:44.080Z,90.23
2017-10-21T03:59:11.536Z,90.10
2017-10-21T04:01:39.041Z,90.12
2017-10-21T04:04:06.554Z,89.89
2017-10-21T04:06:34.108Z,90.35
2017-10-21T04:09:01.598Z,89.88
2017-10-21T04:11:29.123Z,89.61
2017-10-21T04:13:56.685Z,89.81
2017-10-21T04:16:24.155Z,89.66
2017-10-21T04:18:51.750Z,89.85
2017-10-21T04:21:19.269Z,89.57
2017-10-21T04:23:46.796Z,88.97
2017-10-21T04:26:14.255Z,89.79
2017-10-21T04:28:41.703Z,90.13
2017-10-21T04:31:09.171Z,90.24
2017-10-21T04:33:36.620Z,89.70
2017-10-21T04:36:04.097Z,89.94
2017-10-21T04:38:31.548Z,90.27
2017-10-21T04:40:59.041Z,90.26
2017-10-21T04:43:26.501Z,90.77
2017-10-21T04:45:53.981Z,90.48
2017-10-21T04:48:21.482Z,90.10
2017-10-21T04:50:48.957Z,90.05
2017-10-21T04:53:16.406Z,89.94
2017-10-21T04:55:43.949Z,90.23
2017-10-21T04:58:11.432Z,90.39
2017-10-21T05:00:38.914Z,90.65
2017-10-21T05:03:06.384Z,90.64
2017-10-21T05:05:33.865Z,90.29
2017-10-21T05:08:01.353Z,90.08
2017-10-21T05:10:28.807Z,90.18
2017-10-21T05:12:56.366Z,89.62
2017-10-21T05:15:23.821Z,89.72
2017-10-21T05:17:51.680Z,89.78
2017-10-21T05:20:19.146Z,90.20
2017-10-21T05:22:46.616Z,90.14
2017-10-21T05:25:14.074Z,89.98
2017-10-21T05:27:42.526Z,89.13
2017-10-21T05:30:09.994Z,90.11
2017-10-21T05:32:37.467Z,90.85
2017-10-21T05:35:04.916Z,90.21
2017-10-21T05:37:32.461Z,91.24
2017-10-21T05:39:59.911Z,92.59
2017-10-21T05:42:27.471Z,93.14
2017-10-21T05:44:54.937Z,92.40
2017-10-21T05:47:22.423Z,92.09
2017-10-21T05:49:49.882Z,92.67
2017-10-21T05:52:17.410Z,91.97
2017-10-21T05:54:44.853Z,91.85
2017-10-21T05:57:12.338Z,90.94
2017-10-21T05:59:39.872Z,89.52
2017-10-21T06:02:07.353Z,89.39
2017-10-21T06:04:34.806Z,88.92
2017-10-21T06:07:02.280Z,89.23
2017-10-21T06:09:29.833Z,90.26
2017-10-21T06:11:57.305Z,90.38
2017-10-21T06:14:24.828Z,90.50
2017-10-21T06:16:52.296Z,91.16
2017-10-21T06:19:19.768Z,91.45
2017-10-21T06:21:47.245Z,91.77
2017-10-21T06:24:14.690Z,92.38
2017-10-21T06:26:42.151Z,92.67
2017-10-21T06:29:09.621Z,92.52
2017-10-21T06:31:37.100Z,91.59
2017-10-21T06:34:04.553Z,89.46
2017-10-21T06:36:32.032Z,89.79
2017-10-21T06:38:59.538Z,90.78
2017-10-21T06:41:27.001Z,90.80
2017-10-21T06:43:54.476Z,90.68
2017-10-21T06:46:21.933Z,90.74
2017-10-21T06:48:49.510Z,91.03
2017-10-21T06:51:16.948Z,90.92
2017-10-21T06:53:44.436Z,90.98
2017-10-21T06:56:11.984Z,90.77
2017-10-21T06:58:39.460Z,91.29
2017-10-21T07:01:06.911Z,89.33
2017-10-21T07:03:34.389Z,90.60
2017-10-21T07:06:01.926Z,90.11
2017-10-21T07:08:29.423Z,90.09
2017-10-21T07:10:56.889Z,90.56
2017-10-21T07:13:24.370Z,89.86
2017-10-21T07:15:51.846Z,89.59
2017-10-21T07:18:19.422Z,89.62
2017-10-21T07:20:46.893Z,89.59
2017-10-21T07:23:14.427Z,89.05
2017-10-21T07:25:41.948Z,89.06
2017-10-21T07:28:09.561Z,86.25
2017-10-21T07:30:37.020Z,87.89
2017-10-21T07:33:04.507Z,88.11
2017-10-21T07:35:31.961Z,88.19
2017-10-21T07:37:59.512Z,88.43
2017-10-21T07:40:26.977Z,87.88
2017-10-21T07:42:54.464Z,87.72
2017-10-21T07:45:21.919Z,88.06
2017-10-21T07:47:49.388Z,87.94
2017-10-21T07:50:16.849Z,86.37
2017-10-21T07:52:44.329Z,86.04
2017-10-21T07:55:11.867Z,86.00
2017-10-21T07:57:39.368Z,84.71
2017-10-21T08:00:06.852Z,85.04
2017-10-21T08:02:34.353Z,86.50
2017-10-21T08:05:01.901Z,86.98
2017-10-21T08:07:29.368Z,86.92
2017-10-21T08:09:56.921Z,87.00
2017-10-21T08:12:24.469Z,86.93
2017-10-21T08:14:51.936Z,87.33
2017-10-21T08:17:19.411Z,85.45
2017-10-21T08:19:46.896Z,84.00
2017-10-21T08:22:14.344Z,84.83
2017-10-21T08:24:41.819Z,84.26
2017-10-21T08:27:09.349Z,85.11
2017-10-21T08:29:36.877Z,84.55
2017-10-21T08:32:04.340Z,82.67
2017-10-21T08:34:31.829Z,82.54
2017-10-21T08:36:59.357Z,83.11
2017-10-21T08:39:26.828Z,83.78
2017-10-21T08:41:54.369Z,84.86
2017-10-21T08:44:21.851Z,84.31
2017-10-21T08:46:49.316Z,85.42
2017-10-21T08:49:16.833Z,85.87
2017-10-21T08:51:44.310Z,85.41
2017-10-21T08:54:11.802Z,85.29
2017-10-21T08:56:39.262Z,84.73
2017-10-21T08:59:06.761Z,85.55
2017-10-21T09:01:34.226Z,85.27
2017-10-21T09:04:01.783Z,85.00
2017-10-21T09:06:29.234Z,84.88
2017-10-21T09:08:56.803Z,84.51
2017-10-21T09:11:24.252Z,84.53
2017-10-21T09:13:51.723Z,83.04
2017-10-21T09:16:19.165Z,83.77
2017-10-21T09:18:46.660Z,83.02
2017-10-21T09:21:14.125Z,83.27
2017-10-21T09:23:41.625Z,83.25
2017-10-21T09:26:09.129Z,82.80
2017-10-21T09:28:36.648Z,82.59
2017-10-21T09:31:04.114Z,82.58
2017-10-21T09:33:31.581Z,80.92
2017-10-21T09:35:59.111Z,81.57
2017-10-21T09:38:26.706Z,80.98
2017-10-21T09:40:54.239Z,81.69
2017-10-21T09:43:21.708Z,81.35
2017-10-21T09:45:49.193Z,82.04
2017-10-21T09:48:16.709Z,82.35
2017-10-21T09:50:44.192Z,81.02
2017-10-21T09:53:11.647Z,80.04
2017-10-21T09:55:39.153Z,81.58
2017-10-21T09:58:06.611Z,82.01
2017-10-21T10:00:34.096Z,81.77
2017-10-21T10:03:01.556Z,82.90
2017-10-21T10:05:29.050Z,83.24
2017-10-21T10:07:56.510Z,83.38
2017-10-21T10:10:23.995Z,84.67
2017-10-21T10:12:51.457Z,85.08
2017-10-21T10:15:18.941Z,84.27
2017-10-21T10:17:46.405Z,82.91
2017-10-21T10:20:13.905Z,82.52
2017-10-21T10:22:41.394Z,83.67
2017-10-21T10:25:08.867Z,83.22
2017-10-21T10:27:36.432Z,83.20
2017-10-21T10:30:03.974Z,83.27
2017-10-21T10:32:31.457Z,83.03
2017-10-21T10:34:58.928Z,82.91
2017-10-21T10:37:26.375Z,83.61
2017-10-21T10:39:53.853Z,82.62
2017-10-21T10:42:21.307Z,82.45
2017-10-21T10:44:48.787Z,82.59
2017-10-21T10:47:16.240Z,82.45
2017-10-21T10:49:43.720Z,81.64
2017-10-21T10:52:11.206Z,81.63
2017-10-21T10:54:38.749Z,81.06
2017-10-21T10:57:06.215Z,81.44
2017-10-21T10:59:33.664Z,80.85
2017-10-21T11:02:01.149Z,80.79
2017-10-21T11:04:28.680Z,80.54
2017-10-21T11:06:56.174Z,80.40
2017-10-21T11:09:23.644Z,80.47
2017-10-21T11:11:51.119Z,79.77
2017-10-21T11:14:18.597Z,79.14
2017-10-21T11:16:46.078Z,79.28
2017-10-21T11:19:13.652Z,78.98
2017-10-21T11:21:41.185Z,78.83
2017-10-21T11:24:08.732Z,78.76
2017-10-21T11:26:36.344Z,78.64
2017-10-21T11:29:03.811Z,78.74
2017-10-21T11:31:31.313Z,78.49
2017-10-21T11:33:58.823Z,77.93
2017-10-21T11:36:26.333Z,78.49
2017-10-21T11:38:53.817Z,78.28
2017-10-21T11:41:21.346Z,77.74
2017-10-21T11:43:48.820Z,78.86
2017-10-21T11:46:16.352Z,78.89
2017-10-21T11:48:43.808Z,78.25
2017-10-21T11:51:11.274Z,80.49
2017-10-21T11:53:38.783Z,81.38
2017-10-21T11:56:06.276Z,82.65
2017-10-21T11:58:33.723Z,83.45
2017-10-21T12:01:01.204Z,84.16
2017-10-21T12:03:28.654Z,85.37
2017-10-21T12:05:56.142Z,85.68
2017-10-21T12:08:23.603Z,85.86
2017-10-21T12:10:51.133Z,86.60
2017-10-21T12:13:18.675Z,86.39
2017-10-21T12:15:46.268Z,86.14
2017-10-21T12:18:13.814Z,86.22
2017-10-21T12:20:41.303Z,86.75
2017-10-21T12:23:08.764Z,86.44
2017-10-21T12:25:36.221Z,86.32
2017-10-21T12:28:03.741Z,87.27
2017-10-21T12:30:31.212Z,86.77
2017-10-21T12:32:58.708Z,86.57
2017-10-21T12:35:26.211Z,86.67
2017-10-21T12:37:53.756Z,86.96
2017-10-21T12:40:21.215Z,86.31
2017-10-21T12:42:48.694Z,86.43
2017-10-21T12:45:16.237Z,86.12
2017-10-21T12:47:43.720Z,86.99
2017-10-21T12:50:11.258Z,85.65
2017-10-21T12:52:38.814Z,85.72
2017-10-21T12:55:06.750Z,85.49
2017-10-21T12:57:34.228Z,85.77
2017-10-21T13:00:01.695Z,85.22
2017-10-21T13:02:29.206Z,85.35
2017-10-21T13:04:56.665Z,85.36
2017-10-21T13:07:24.181Z,85.83
2017-10-21T13:09:51.671Z,84.85
2017-10-21T13:12:19.168Z,85.07
2017-10-21T13:14:46.629Z,85.52
2017-10-21T13:17:14.123Z,85.34
2017-10-21T13:19:41.575Z,84.41
2017-10-21T13:22:09.052Z,84.54
2017-10-21T13:24:36.572Z,85.19
2017-10-21T13:27:04.114Z,84.34
2017-10-21T13:29:31.566Z,84.47
2017-10-21T13:31:59.080Z,84.93
2017-10-21T13:34:26.541Z,83.92
2017-10-21T13:36:54.050Z,84.82
2017-10-21T13:39:21.551Z,84.76
2017-10-21T13:41:49.046Z,84.70
2017-10-21T13:44:16.510Z,84.72
2017-10-21T13:46:44.023Z,84.93
2017-10-21T13:49:11.468Z,85.12
2017-10-21T13:51:38.987Z,84.86
2017-10-21T13:54:06.470Z,85.26
2017-10-21T13:56:34.022Z,85.13
2017-10-21T13:59:01.560Z,84.89
2017-10-21T14:01:29.021Z,84.80
2017-10-21T14:03:56.500Z,84.31
2017-10-21T14:06:24.041Z,83.84
2017-10-21T14:08:51.539Z,84.76
2017-10-21T14:11:19.006Z,84.16
2017-10-21T14:13:46.491Z,84.96
2017-10-21T14:16:13.962Z,85.32
2017-10-21T14:18:41.545Z,85.41
2017-10-21T14:21:08.998Z,86.12
2017-10-21T14:23:36.541Z,86.55
2017-10-21T14:26:04.021Z,87.26
2017-10-21T14:28:31.517Z,88.54
2017-10-21T14:30:58.981Z,89.24
2017-10-21T14:33:26.458Z,89.54
2017-10-21T14:35:53.937Z,89.38
2017-10-21T14:38:21.403Z,90.81
2017-10-21T14:40:48.880Z,90.92
2017-10-21T14:43:16.382Z,91.31
2017-10-21T14:45:43.843Z,91.85
2017-10-21T14:48:11.322Z,91.16
2017-10-21T14:50:38.867Z,91.94
2017-10-21T14:53:06.357Z,92.19
2017-10-21T14:55:33.818Z,92.27
2017-10-21T14:58:01.358Z,91.14
2017-10-21T15:00:28.807Z,90.72
2017-10-21T15:02:56.280Z,90.85
2017-10-21T15:05:23.737Z,90.04
2017-10-21T15:07:51.249Z,90.57
2017-10-21T15:10:18.726Z,89.82
2017-10-21T15:12:46.246Z,90.15
2017-10-21T15:15:13.735Z,91.09
2017-10-21T15:17:41.224Z,89.89
2017-10-21T15:20:08.771Z,90.53
2017-10-21T15:22:36.242Z,90.75
2017-10-21T15:25:03.766Z,90.12
2017-10-21T15:27:31.229Z,88.81
2017-10-21T15:29:58.780Z,88.29
2017-10-21T15:32:26.251Z,87.54
2017-10-21T15:34:53.723Z,87.21
2017-10-21T15:37:21.196Z,86.83
2017-10-21T15:39:48.742Z,86.95
2017-10-21T15:42:16.219Z,86.19
2017-10-21T15:44:43.731Z,86.96
2017-10-21T15:47:11.208Z,87.02
2017-10-21T15:49:38.737Z,86.87
2017-10-21T15:52:06.197Z,85.98
2017-10-21T15:54:33.721Z,85.17
2017-10-21T15:57:01.190Z,85.42
2017-10-21T15:59:28.785Z,85.36
2017-10-21T16:01:56.257Z,85.84
2017-10-21T16:04:23.793Z,85.45
2017-10-21T16:06:51.264Z,84.77
2017-10-21T16:09:18.790Z,85.76
2017-10-21T16:11:46.258Z,85.54
2017-10-21T16:14:13.736Z,85.32
2017-10-21T16:16:41.225Z,85.13
2017-10-21T16:19:08.711Z,85.33
2017-10-21T16:21:36.240Z,85.60
2017-10-21T16:24:03.755Z,85.59
2017-10-21T16:26:31.304Z,85.34
2017-10-21T16:28:58.877Z,85.68
2017-10-21T16:31:26.328Z,85.91
2017-10-21T16:33:53.890Z,86.10
2017-10-21T16:36:21.352Z,86.04
2017-10-21T16:38:48.844Z,85.80
2017-10-21T16:41:16.301Z,85.32
2017-10-21T16:43:43.787Z,86.61
2017-10-21T16:46:11.250Z,85.98
2017-10-21T16:48:38.823Z,84.12
2017-10-21T16:51:06.284Z,84.51
2017-10-21T16:53:33.797Z,84.21
2017-10-21T16:56:01.278Z,83.23
2017-10-21T16:58:28.811Z,81.45
2017-10-21T17:00:56.361Z,81.06
2017-10-21T17:03:23.872Z,81.17
2017-10-21T17:05:51.353Z,79.82
2017-10-21T17:08:18.875Z,77.87
2017-10-21T17:10:46.470Z,78.52
2017-10-21T17:13:14.001Z,77.45
2017-10-21T17:15:41.566Z,77.67
2017-10-21T17:18:09.065Z,78.62
2017-10-21T17:20:36.551Z,78.03
2017-10-21T17:23:04.075Z,79.31
2017-10-21T17:25:31.554Z,78.81
2017-10-21T17:27:59.020Z,78.84
2017-10-21T17:30:26.504Z,79.08
2017-10-21T17:32:53.964Z,78.62
2017-10-21T17:35:21.471Z,79.71
2017-10-21T17:37:48.965Z,79.74
2017-10-21T17:40:16.443Z,79.36
2017-10-21T17:42:44.002Z,80.50
2017-10-21T17:45:11.509Z,80.66
2017-10-21T17:47:38.960Z,81.77
2017-10-21T17:50:06.477Z,83.20
2017-10-21T17:52:33.984Z,82.39
2017-10-21T17:55:01.494Z,83.64
2017-10-21T17:57:28.943Z,83.50
2017-10-21T17:59:56.429Z,84.13
2017-10-21T18:02:23.889Z,84.40
2017-10-21T18:04:51.396Z,84.94
2017-10-21T18:07:18.870Z,84.17
2017-10-21T18:09:46.372Z,84.87
2017-10-21T18:12:13.854Z,83.89
2017-10-21T18:14:41.352Z,83.37
2017-10-21T18:17:08.892Z,84.36
2017-10-21T18:19:36.460Z,85.07
2017-10-21T18:22:03.949Z,82.49
2017-10-21T18:24:31.411Z,83.66
2017-10-21T18:26:58.902Z,84.86
2017-10-21T18:29:26.363Z,84.48
2017-10-21T18:31:53.841Z,84.03
2017-10-21T18:34:21.418Z,84.24
2017-10-21T18:36:48.911Z,86.12
2017-10-21T18:39:16.417Z,85.54
2017-10-21T18:41:43.900Z,86.35
2017-10-21T18:44:11.377Z,84.00
2017-10-21T18:46:38.866Z,85.13
2017-10-21T18:49:06.327Z,87.37
2017-10-21T18:51:33.902Z,87.91
2017-10-21T18:54:01.365Z,88.99
2017-10-21T18:56:28.968Z,88.45
2017-10-21T18:58:56.437Z,88.33
2017-10-21T19:01:23.946Z,88.52
2017-10-21T19:03:51.412Z,88.29
2017-10-21T19:06:18.904Z,87.28
2017-10-21T19:08:46.412Z,87.96
2017-10-21T19:11:13.903Z,87.42
2017-10-21T19:13:41.351Z,87.30
2017-10-21T19:16:08.919Z,86.97
2017-10-21T19:18:36.382Z,88.10
2017-10-21T19:21:03.871Z,86.35
2017-10-21T19:23:31.328Z,87.93
2017-10-21T19:25:58.805Z,88.12
2017-10-21T19:28:26.265Z,87.37
2017-10-21T19:30:53.770Z,87.13
2017-10-21T19:33:21.251Z,87.50
2017-10-21T19:35:48.733Z,87.15
2017-10-21T19:38:16.301Z,87.36
2017-10-21T19:40:43.858Z,87.08
2017-10-21T19:43:11.333Z,87.14
2017-10-21T19:45:38.821Z,87.35
2017-10-21T19:48:06.319Z,86.90
2017-10-21T19:50:33.778Z,86.33
2017-10-21T19:53:01.283Z,85.76
2017-10-21T19:55:28.748Z,87.18
2017-10-21T19:57:56.257Z,85.83
2017-10-21T20:00:23.704Z,85.46
2017-10-21T20:02:51.189Z,86.09
2017-10-21T20:05:18.639Z,85.80
2017-10-21T20:07:46.129Z,85.22
2017-10-21T20:10:13.700Z,85.52
2017-10-21T20:12:41.189Z,84.81
2017-10-21T20:15:08.766Z,85.27
2017-10-21T20:17:36.243Z,84.78
2017-10-21T20:20:03.744Z,85.24
2017-10-21T20:22:31.336Z,85.27
2017-10-21T20:24:58.800Z,84.78
2017-10-21T20:27:26.287Z,85.05
2017-10-21T20:29:53.742Z,84.19
2017-10-21T20:32:21.246Z,85.44
2017-10-21T20:34:48.722Z,84.58
2017-10-21T20:37:16.221Z,84.31
2017-10-21T20:39:43.689Z,85.86
2017-10-21T20:42:11.153Z,86.51
2017-10-21T20:44:38.637Z,84.99
2017-10-21T20:47:06.096Z,84.93
2017-10-21T20:49:33.572Z,85.56
2017-10-21T20:52:01.021Z,86.13
2017-10-21T20:54:28.574Z,87.17
2017-10-21T20:56:56.038Z,87.17
2017-10-21T20:59:23.519Z,87.26
2017-10-21T21:01:51.006Z,87.11
2017-10-21T21:04:18.491Z,87.83
2017-10-21T21:06:45.983Z,86.96
2017-10-21T21:09:13.517Z,87.42
2017-10-21T21:11:40.966Z,86.45
2017-10-21T21:14:08.466Z,86.17
2017-10-21T21:16:35.916Z,86.12
2017-10-21T21:19:03.387Z,86.18
2017-10-21T21:21:30.878Z,86.13
2017-10-21T21:23:58.372Z,85.95
2017-10-21T21:26:25.919Z,86.19
2017-10-21T21:28:53.496Z,88.09
2017-10-21T21:31:20.956Z,88.64
2017-10-21T21:33:48.441Z,88.39
2017-10-21T21:36:15.898Z,88.65
2017-10-21T21:38:43.420Z,87.79
2017-10-21T21:41:10.888Z,87.37
2017-10-21T21:43:38.425Z,86.61
2017-10-21T21:46:05.968Z,86.83
2017-10-21T21:48:33.445Z,86.82
2017-10-21T21:51:00.937Z,86.54
2017-10-21T21:53:28.444Z,86.01
2017-10-21T21:55:56.026Z,86.49
2017-10-21T21:58:23.497Z,87.32
2017-10-21T22:00:50.972Z,87.23
2017-10-21T22:03:18.476Z,85.33
2017-10-21T22:05:45.950Z,85.76
2017-10-21T22:08:13.488Z,85.65
2017-10-21T22:10:40.982Z,85.87
2017-10-21T22:13:08.455Z,85.53
2017-10-21T22:15:35.961Z,86.15
2017-10-21T22:18:03.415Z,86.25
2017-10-21T22:20:30.894Z,86.21
2017-10-21T22:22:58.437Z,86.15
2017-10-21T22:25:25.992Z,87.08
2017-10-21T22:27:53.449Z,85.86
2017-10-21T22:30:21.004Z,86.95
2017-10-21T22:32:48.513Z,87.47
2017-10-21T22:35:16.012Z,88.14
2017-10-21T22:37:43.599Z,87.89
2017-10-21T22:40:11.106Z,87.33
2017-10-21T22:42:38.596Z,88.62
2017-10-21T22:45:06.082Z,89.27
2017-10-21T22:47:33.634Z,89.26
2017-10-21T22:50:01.169Z,89.49
2017-10-21T22:52:28.630Z,88.54
2017-10-21T22:54:56.198Z,88.41
2017-10-21T22:57:23.743Z,88.66
2017-10-21T22:59:51.221Z,87.85
2017-10-21T23:02:18.706Z,87.65
2017-10-21T23:04:46.179Z,87.10
2017-10-21T23:07:13.671Z,86.40
2017-10-21T23:09:41.138Z,86.21
2017-10-21T23:12:08.687Z,85.73
2017-10-21T23:14:36.181Z,85.76
2017-10-21T23:17:03.645Z,86.20
2017-10-21T23:19:31.102Z,85.82
2017-10-21T23:21:58.592Z,85.41
2017-10-21T23:24:26.058Z,85.86
2017-10-21T23:26:53.588Z,85.55
2017-10-21T23:29:21.085Z,84.87
2017-10-21T23:31:48.555Z,85.37
2017-10-21T23:34:16.014Z,85.22
2017-10-21T23:36:43.515Z,85.57
2017-10-21T23:39:10.977Z,84.34
2017-10-21T23:41:38.456Z,84.13
2017-10-21T23:44:05.935Z,85.40
2017-10-21T23:46:33.421Z,85.30
2017-10-21T23:49:00.959Z,84.63
2017-10-21T23:51:28.476Z,85.25
2017-10-21T23:53:55.961Z,85.52
2017-10-21T23:56:23.529Z,84.86
2017-10-21T23:58:50.992Z,85.25
